Messwerte Camagüey

Temperatur

Temperatur
°C
1594188000 2.00 2.00 26
1594191600 3.00 3.00
1594195200 4.00 4.00 25
1594198800 5.00 5.00 25
1594202400 6.00 6.00 24
1594206000 7.00 7.00 24
1594209600 8.00 8.00 25
1594213200 9.00 9.00 28
1594216800 10.00 10.00 30
1594220400 11.00 11.00 30
1594224000 12.00 12.00 32
1594227600 13.00 13.00
1594231200 14.00 14.00 33
1594234800 15.00 15.00 32
1594238400 16.00 16.00 33
1594242000 17.00 17.00 33
1594245600 18.00 18.00 33
1594249200 19.00 19.00 31
1594252800 20.00 20.00 31
1594256400 21.00 21.00 29
1594260000 22.00 22.00 28
1594263600 23.00 23.00 27
1594267200 0.00 0.00 26
1594270800 1.00 1.00

Wir danken unserem Partner:

Aktuellste Messwerte

Temperatur
26 °C
Feuchtigkeit
100 %
Wind
10 km/hWindrichtung: Nordost
Luftdruck
1015 hPa
Messzeit: 9. Juli 2020, 1.00Datenquelle: METAR

Weitere Messstationen in der Nähe

Messstation Temperatur Entfernung
Cayo Coco 26 °C 125 km
Holguín 27 °C 174 km
Abel Santamaria 26 °C 246 km
Santiago de Cuba 24 °C 263 km
Montego Bay 28 °C 325 km
Guantánamo 26 °C 329 km
Playa Giron 29 °C 336 km

Wind

Windrichtung Böen Mittelwind
° km/h km/h
1594188000 2.00 1.00 - 2.00 50° 10
1594191600 3.00 2.00 - 3.00
1594195200 4.00 3.00 - 4.00 60° 10
1594198800 5.00 4.00 - 5.00 50° 10
1594202400 6.00 5.00 - 6.00 40° 10
1594206000 7.00 6.00 - 7.00 40° 10
1594209600 8.00 7.00 - 8.00 40° 10
1594213200 9.00 8.00 - 9.00 60° 20
1594216800 10.00 9.00 - 10.00 60° 20
1594220400 11.00 10.00 - 11.00 70° 20
1594224000 12.00 11.00 - 12.00 60° 20
1594227600 13.00 12.00 - 13.00
1594231200 14.00 13.00 - 14.00 50° 20
1594234800 15.00 14.00 - 15.00 50° 20
1594238400 16.00 15.00 - 16.00 40° 20
1594242000 17.00 16.00 - 17.00 30° 25
1594245600 18.00 17.00 - 18.00 30° 25
1594249200 19.00 18.00 - 19.00 30° 20
1594252800 20.00 19.00 - 20.00 50° 20
1594256400 21.00 20.00 - 21.00 20° 15
1594260000 22.00 21.00 - 22.00 30° 15
1594263600 23.00 22.00 - 23.00 40° 10
1594267200 0.00 23.00 - 0.00 50° 15
1594270800 1.00 0.00 - 1.00

Ihre Wetterstation

Fehlt Ihre Wetterstation auf unserem Portal?

Schreiben Sie an network@meteonews.ch